Time;durP1;ratioP1;P1;durP2;ratioP2;P2;SDS_P1;SDS_P2;PMS_P1;PMS_P2;Temp;Humidity;BMP_temperature;BMP_pressure;BME280_temperature;BME280_humidity;BME280_pressure;Samples;Min_cycle;Max_cycle;Signal;HPM_P1;HPM_P2
2021/12/24 00:01:40;;;;;;;14.65;9.75;;;5.80;99.90;;;;;;4838637;29;20433;-76
2021/12/24 00:04:09;;;;;;;13.80;9.63;;;5.90;99.90;;;;;;4817785;29;20084;-77
2021/12/24 00:06:35;;;;;;;11.82;8.75;;;6.00;99.90;;;;;;4840008;29;20117;-77
2021/12/24 00:09:03;;;;;;;11.32;8.98;;;5.90;99.90;;;;;;4840502;29;20057;-77
2021/12/24 00:11:29;;;;;;;10.77;8.30;;;5.90;99.90;;;;;;4828656;29;20163;-76
2021/12/24 00:13:55;;;;;;;10.80;8.68;;;5.90;99.90;;;;;;4857581;29;20523;-76
2021/12/24 00:16:27;;;;;;;10.50;8.60;;;6.00;99.90;;;;;;4830001;29;20138;-78
2021/12/24 00:19:18;;;;;;;12.25;9.00;;;6.00;99.90;;;;;;4837906;29;20037;-77
2021/12/24 00:35:29;;;;;;;10.07;7.57;;;6.10;99.90;;;;;;4840402;29;20136;-76
2021/12/24 00:37:55;;;;;;;9.10;7.20;;;6.10;99.90;;;;;;4832068;29;20074;-76
2021/12/24 00:40:21;;;;;;;;;;;6.10;99.90;;;;;;4834591;29;20129;-76
2021/12/24 00:42:50;;;;;;;9.82;7.63;;;6.10;99.90;;;;;;4838312;29;20066;-76
2021/12/24 00:45:19;;;;;;;9.45;7.47;;;6.10;99.90;;;;;;4817452;29;20448;-76
2021/12/24 00:47:46;;;;;;;9.27;7.20;;;6.10;99.90;;;;;;4840032;29;20061;-76
2021/12/24 00:50:16;;;;;;;10.43;7.13;;;6.10;99.90;;;;;;4833298;29;20049;-76
2021/12/24 00:55:10;;;;;;;8.23;6.63;;;6.20;99.90;;;;;;4836457;29;20522;-76
2021/12/24 00:57:38;;;;;;;10.07;7.30;;;6.20;99.90;;;;;;4829761;29;20049;-76
2021/12/24 01:00:11;;;;;;;8.13;6.50;;;6.20;99.90;;;;;;4819415;29;20053;-75
2021/12/24 01:02:37;;;;;;;9.88;7.53;;;6.20;99.90;;;;;;4839593;29;20037;-75
2021/12/24 01:05:03;;;;;;;8.50;6.50;;;6.30;99.90;;;;;;4835622;29;20030;-75
2021/12/24 01:07:29;;;;;;;8.15;6.45;;;6.20;99.90;;;;;;4835783;29;20056;-76
2021/12/24 01:09:55;;;;;;;9.07;6.57;;;6.30;99.90;;;;;;4834564;29;20053;-76
2021/12/24 01:12:21;;;;;;;6.78;5.85;;;6.30;99.90;;;;;;4836731;29;20092;-76
2021/12/24 01:14:48;;;;;;;7.05;5.50;;;6.30;99.90;;;;;;4823909;29;20073;-75
2021/12/24 01:17:28;;;;;;;7.72;6.00;;;6.30;99.90;;;;;;4836582;29;20060;-75
2021/12/24 01:20:00;;;;;;;8.18;6.07;;;6.30;99.90;;;;;;4838815;29;20065;-76
2021/12/24 01:25:12;;;;;;;6.57;5.50;;;6.40;99.90;;;;;;4825806;29;20046;-75
2021/12/24 01:38:32;;;;;;;6.20;4.95;;;6.50;99.90;;;;;;4833834;29;20067;-75
2021/12/24 01:43:27;;;;;;;5.38;4.50;;;6.60;99.90;;;;;;4834362;29;20065;-76
2021/12/24 01:45:55;;;;;;;4.78;4.22;;;6.60;99.90;;;;;;4830956;29;20048;-75
2021/12/24 01:48:21;;;;;;;5.72;4.40;;;6.60;99.90;;;;;;4839289;29;20102;-75
2021/12/24 01:50:48;;;;;;;5.10;4.47;;;6.70;99.90;;;;;;4836493;29;20036;-75
2021/12/24 01:53:20;;;;;;;4.45;3.90;;;6.60;99.90;;;;;;4819704;29;20456;-75
2021/12/24 01:55:50;;;;;;;4.78;3.83;;;6.70;99.90;;;;;;4816402;29;20448;-75
2021/12/24 01:58:21;;;;;;;4.35;3.78;;;6.70;99.90;;;;;;4835796;29;20050;-75
2021/12/24 02:00:50;;;;;;;4.13;3.55;;;6.70;99.90;;;;;;4830536;29;20046;-75
2021/12/24 02:03:16;;;;;;;4.18;3.45;;;6.70;99.90;;;;;;4814060;29;20141;-75
2021/12/24 02:05:43;;;;;;;4.13;3.58;;;6.70;99.90;;;;;;4835222;29;20124;-75
2021/12/24 02:08:10;;;;;;;4.47;3.63;;;6.80;99.90;;;;;;4840023;29;20049;-76
2021/12/24 02:10:36;;;;;;;3.75;3.20;;;6.80;99.90;;;;;;4835518;29;20106;-77
2021/12/24 02:13:03;;;;;;;3.65;3.17;;;6.80;99.90;;;;;;4818222;29;20462;-77
2021/12/24 02:18:44;;;;;;;3.67;3.03;;;6.90;99.90;;;;;;4822350;29;20045;-77
2021/12/24 02:29:19;;;;;;;4.38;3.28;;;6.90;99.90;;;;;;4848629;29;20152;-79
2021/12/24 02:31:45;;;;;;;4.00;3.40;;;7.00;99.90;;;;;;4870316;29;20436;-78
2021/12/24 02:34:10;;;;;;;4.68;3.65;;;7.00;99.90;;;;;;4846189;29;20045;-78
2021/12/24 02:36:36;;;;;;;4.28;3.40;;;7.00;99.90;;;;;;4840299;29;20117;-78
2021/12/24 02:39:04;;;;;;;4.75;3.42;;;7.00;99.90;;;;;;4836125;29;20049;-78
2021/12/24 02:41:30;;;;;;;4.40;3.70;;;7.00;99.90;;;;;;4857548;29;20053;-79
2021/12/24 02:43:56;;;;;;;3.95;3.13;;;7.00;99.90;;;;;;4843060;29;20459;-78
2021/12/24 02:46:35;;;;;;;3.72;3.28;;;7.00;99.90;;;;;;4838496;29;20158;-79
2021/12/24 02:49:15;;;;;;;4.72;3.70;;;7.00;99.90;;;;;;4814160;29;20114;-79
2021/12/24 02:54:26;;;;;;;4.80;3.72;;;7.10;99.90;;;;;;4841886;29;20087;-79
2021/12/24 02:56:55;;;;;;;5.22;3.97;;;7.10;99.90;;;;;;4816367;29;20042;-80
2021/12/24 02:59:29;;;;;;;5.03;4.07;;;7.10;99.90;;;;;;4831578;29;20046;-79
2021/12/24 03:01:56;;;;;;;3.97;3.58;;;7.10;99.90;;;;;;4832707;29;20051;-79
2021/12/24 03:04:22;;;;;;;4.90;3.80;;;7.10;99.90;;;;;;4840493;29;20153;-79
2021/12/24 03:06:51;;;;;;;4.07;3.17;;;7.10;99.90;;;;;;4828730;29;20518;-79
2021/12/24 03:09:19;;;;;;;4.43;3.70;;;7.10;99.90;;;;;;4848793;29;20062;-79
2021/12/24 03:11:46;;;;;;;5.80;4.32;;;7.10;99.90;;;;;;4832309;29;20169;-79
2021/12/24 03:14:15;;;;;;;5.32;4.32;;;7.20;99.90;;;;;;4841269;29;20045;-79
2021/12/24 03:16:43;;;;;;;5.32;4.40;;;7.20;99.90;;;;;;4835319;29;20054;-79
2021/12/24 03:19:09;;;;;;;5.75;4.05;;;7.30;99.90;;;;;;4841421;29;20045;-80
2021/12/24 03:21:50;;;;;;;6.35;4.70;;;7.30;99.90;;;;;;4837788;29;20475;-79
2021/12/24 03:26:45;;;;;;;6.95;4.65;;;7.30;99.90;;;;;;4832274;29;20469;-79
2021/12/24 03:29:13;;;;;;;6.40;4.60;;;7.30;99.90;;;;;;4848327;29;20407;-79
2021/12/24 03:31:39;;;;;;;6.35;5.00;;;7.40;99.90;;;;;;4835028;29;20519;-80
2021/12/24 03:34:07;;;;;;;8.30;5.70;;;7.40;99.90;;;;;;4830615;29;20082;-80
2021/12/24 03:36:33;;;;;;;9.07;5.53;;;7.40;99.90;;;;;;4840914;29;20046;-80
2021/12/24 03:38:59;;;;;;;9.35;6.07;;;7.40;99.90;;;;;;4827308;29;20053;-80
2021/12/24 03:41:25;;;;;;;9.32;6.63;;;7.50;99.90;;;;;;4856466;29;20060;-80
2021/12/24 03:43:52;;;;;;;9.23;5.95;;;7.50;99.90;;;;;;4838823;29;20384;-81
2021/12/24 03:46:22;;;;;;;11.13;6.97;;;7.60;99.90;;;;;;4829803;29;20560;-81
2021/12/24 03:48:56;;;;;;;11.80;7.03;;;7.60;99.90;;;;;;4836526;29;20048;-80
2021/12/24 03:56:34;;;;;;;12.90;7.43;;;7.70;99.90;;;;;;4838111;29;20061;-80
2021/12/24 03:59:00;;;;;;;18.00;8.77;;;7.80;99.90;;;;;;4845979;29;20034;-81
2021/12/24 04:01:26;;;;;;;18.13;8.88;;;7.80;99.90;;;;;;4831254;29;20049;-81
2021/12/24 04:03:52;;;;;;;14.35;7.80;;;7.90;99.90;;;;;;4826039;29;20054;-80
2021/12/24 04:06:18;;;;;;;19.85;9.35;;;7.90;99.90;;;;;;4828414;29;20038;-80
2021/12/24 04:08:44;;;;;;;21.60;10.23;;;7.90;99.90;;;;;;4843381;29;20045;-80
2021/12/24 04:11:10;;;;;;;24.05;10.55;;;8.00;99.90;;;;;;4850872;29;20045;-81
2021/12/24 04:13:36;;;;;;;23.00;10.65;;;8.00;99.90;;;;;;4833210;29;20049;-80
2021/12/24 04:16:02;;;;;;;20.70;10.23;;;8.00;99.90;;;;;;4837394;29;20093;-80
2021/12/24 04:26:27;;;;;;;17.73;9.43;;;8.10;99.90;;;;;;4833955;29;20053;-82
2021/12/24 04:28:53;;;;;;;19.90;9.60;;;8.10;99.90;;;;;;4830707;29;20136;-82
2021/12/24 04:31:25;;;;;;;18.58;9.00;;;8.10;99.90;;;;;;4813892;29;20124;-83
2021/12/24 04:33:51;;;;;;;16.63;8.73;;;8.20;99.90;;;;;;4837177;29;20053;-83
2021/12/24 04:36:44;;;;;;;18.55;9.30;;;8.20;99.90;;;;;;4812681;29;20048;-82
2021/12/24 04:39:36;;;;;;;19.40;9.40;;;8.20;99.90;;;;;;4837764;29;20049;-83
2021/12/24 05:03:37;;;;;;;29.38;15.18;;;8.40;99.90;;;;;;4851904;29;20563;-82
2021/12/24 05:08:53;;;;;;;30.08;15.98;;;8.40;99.90;;;;;;4839998;29;20053;-82
2021/12/24 05:11:21;;;;;;;26.90;16.15;;;8.50;99.90;;;;;;4832972;29;20120;-83
2021/12/24 05:13:48;;;;;;;25.38;14.90;;;8.50;99.90;;;;;;4830634;29;20743;-84
2021/12/24 05:21:35;;;;;;;26.23;14.80;;;8.50;99.90;;;;;;4810041;29;20044;-83
2021/12/24 05:24:07;;;;;;;29.98;15.88;;;8.60;99.90;;;;;;4835297;29;20072;-83
2021/12/24 05:26:34;;;;;;;27.95;15.43;;;8.50;99.90;;;;;;4853748;29;20559;-82
2021/12/24 05:29:02;;;;;;;27.05;15.70;;;8.50;99.90;;;;;;4824192;29;20053;-83
2021/12/24 05:31:29;;;;;;;30.58;16.52;;;8.50;99.90;;;;;;4820706;29;20034;-83
2021/12/24 05:33:55;;;;;;;26.80;15.43;;;8.50;99.90;;;;;;4861631;29;20399;-82
2021/12/24 05:36:21;;;;;;;30.38;15.30;;;8.50;99.90;;;;;;4839579;29;20045;-82
2021/12/24 05:38:47;;;;;;;30.90;16.15;;;8.50;99.90;;;;;;4829056;29;20045;-83
2021/12/24 05:41:14;;;;;;;27.42;16.40;;;8.50;99.90;;;;;;4814501;29;20053;-83
2021/12/24 05:43:40;;;;;;;32.20;16.10;;;8.50;99.90;;;;;;4829486;29;20051;-82
2021/12/24 05:46:06;;;;;;;29.42;15.77;;;8.50;99.90;;;;;;4839036;29;20125;-82
2021/12/24 05:48:32;;;;;;;30.00;15.73;;;8.60;99.90;;;;;;4811407;29;20569;-82
2021/12/24 05:50:57;;;;;;;32.35;15.02;;;8.50;99.90;;;;;;4843035;29;20050;-82
2021/12/24 05:53:24;;;;;;;31.80;14.23;;;8.60;99.90;;;;;;4839910;29;20044;-82
2021/12/24 05:55:50;;;;;;;26.83;13.65;;;8.60;99.90;;;;;;4813907;29;20049;-82
2021/12/24 05:58:17;;;;;;;27.52;13.07;;;8.50;99.90;;;;;;4818549;29;20120;-82
2021/12/24 06:00:43;;;;;;;25.92;13.00;;;8.60;99.90;;;;;;4836797;29;20048;-81
2021/12/24 06:03:10;;;;;;;24.48;11.68;;;8.50;99.90;;;;;;4829537;29;20045;-81
2021/12/24 06:05:37;;;;;;;26.00;12.45;;;8.50;99.90;;;;;;4844771;29;20527;-82
2021/12/24 06:08:05;;;;;;;25.38;11.85;;;8.50;99.90;;;;;;4829235;29;20042;-82
2021/12/24 06:10:32;;;;;;;21.60;10.50;;;8.50;99.90;;;;;;4817194;29;20501;-82
2021/12/24 06:12:58;;;;;;;17.65;9.73;;;8.50;99.90;;;;;;4818277;29;20049;-82
2021/12/24 06:15:26;;;;;;;27.30;9.80;;;8.50;99.90;;;;;;4828473;29;20404;-82
2021/12/24 06:17:55;;;;;;;26.40;10.18;;;8.60;99.90;;;;;;4820507;29;20042;-82
2021/12/24 06:20:22;;;;;;;24.75;9.68;;;8.50;99.90;;;;;;4840745;29;20394;-82
2021/12/24 06:22:48;;;;;;;22.63;9.55;;;8.40;99.90;;;;;;4822579;29;20041;-83
2021/12/24 06:25:17;;;;;;;25.48;8.93;;;8.50;99.90;;;;;;4841364;29;20143;-81
2021/12/24 06:27:43;;;;;;;26.92;9.73;;;8.50;99.90;;;;;;4820206;29;20045;-82
2021/12/24 06:30:09;;;;;;;;;;;8.40;99.90;;;;;;4838772;29;20101;-82
2021/12/24 06:32:35;;;;;;;28.63;9.45;;;8.40;99.90;;;;;;4836802;29;19975;-83
2021/12/24 06:35:01;;;;;;;26.38;8.90;;;8.50;99.90;;;;;;4828654;29;20145;-81
2021/12/24 06:37:26;;;;;;;26.00;7.97;;;8.50;99.90;;;;;;4820412;29;20046;-81
2021/12/24 06:39:54;;;;;;;22.65;8.73;;;8.40;99.90;;;;;;4802186;29;20549;-82
2021/12/24 06:42:20;;;;;;;21.63;8.85;;;8.50;99.90;;;;;;4824921;29;20148;-82
2021/12/24 06:44:45;;;;;;;20.95;7.47;;;8.50;99.90;;;;;;4842892;29;20745;-82
2021/12/24 06:47:11;;;;;;;23.00;9.27;;;8.40;99.90;;;;;;4840496;29;20045;-83
2021/12/24 06:49:37;;;;;;;25.90;8.38;;;8.40;99.90;;;;;;4832811;29;20085;-82
2021/12/24 06:52:03;;;;;;;20.38;7.13;;;8.50;99.90;;;;;;4813691;29;20132;-82
2021/12/24 06:54:31;;;;;;;25.05;7.97;;;8.40;99.90;;;;;;4835883;29;20057;-83
2021/12/24 06:56:57;;;;;;;21.67;7.78;;;8.40;99.90;;;;;;4834637;29;20088;-84
2021/12/24 06:59:23;;;;;;;20.27;8.15;;;8.40;99.90;;;;;;4812970;29;20033;-83
2021/12/24 07:01:49;;;;;;;22.38;8.88;;;8.30;99.90;;;;;;4816771;29;20046;-83
2021/12/24 07:04:14;;;;;;;23.38;8.02;;;8.40;99.90;;;;;;4836404;29;20041;-83
2021/12/24 07:06:45;;;;;;;22.08;8.68;;;8.40;99.90;;;;;;4828190;29;20056;-83
2021/12/24 07:09:12;;;;;;;18.73;8.25;;;8.30;99.90;;;;;;4831588;29;20053;-83
2021/12/24 07:11:39;;;;;;;25.58;9.13;;;8.30;99.90;;;;;;4829867;29;20516;-83
2021/12/24 07:14:08;;;;;;;23.58;9.15;;;8.40;99.90;;;;;;4839819;29;20060;-84
2021/12/24 07:16:34;;;;;;;20.80;9.55;;;8.30;99.90;;;;;;4822519;29;20132;-84
2021/12/24 07:19:00;;;;;;;23.17;8.38;;;8.40;99.90;;;;;;4835183;29;20045;-84
2021/12/24 07:21:26;;;;;;;19.70;8.52;;;8.40;99.90;;;;;;4819853;29;20060;-83
2021/12/24 07:23:52;;;;;;;20.85;7.57;;;8.30;99.90;;;;;;4835315;29;20511;-82
2021/12/24 07:26:18;;;;;;;16.55;6.90;;;8.30;99.90;;;;;;4841304;29;20496;-82
2021/12/24 07:28:43;;;;;;;20.00;7.18;;;8.30;99.90;;;;;;4835976;29;20046;-82
2021/12/24 07:31:09;;;;;;;14.90;6.75;;;8.20;99.90;;;;;;4831092;29;20046;-82
2021/12/24 07:33:35;;;;;;;17.13;6.10;;;8.20;99.90;;;;;;4825864;29;20041;-82
2021/12/24 07:36:01;;;;;;;14.20;5.47;;;8.30;99.90;;;;;;4810718;29;20038;-83
2021/12/24 07:38:26;;;;;;;13.85;5.32;;;8.20;99.90;;;;;;4837083;29;20049;-83
2021/12/24 07:40:52;;;;;;;9.43;4.55;;;8.20;99.90;;;;;;4809847;29;20041;-83
2021/12/24 07:43:18;;;;;;;8.32;4.10;;;8.20;99.90;;;;;;4840021;29;20052;-82
2021/12/24 07:45:46;;;;;;;9.30;4.07;;;8.20;99.90;;;;;;4840291;29;20041;-83
2021/12/24 07:48:16;;;;;;;12.18;4.05;;;8.10;99.90;;;;;;4836864;29;20050;-82
2021/12/24 07:53:14;;;;;;;11.70;4.15;;;8.10;99.90;;;;;;4840962;29;20048;-82
2021/12/24 07:55:40;;;;;;;9.98;4.10;;;8.10;99.90;;;;;;4860911;29;20511;-82
2021/12/24 07:58:07;;;;;;;;;;;8.10;99.90;;;;;;4842392;29;20041;-83
2021/12/24 08:00:36;;;;;;;11.20;4.25;;;8.20;99.90;;;;;;4830962;29;19927;-83
2021/12/24 08:03:03;;;;;;;13.15;4.63;;;8.10;99.90;;;;;;4840028;29;20046;-83
2021/12/24 08:05:31;;;;;;;13.65;4.68;;;8.10;99.90;;;;;;4820345;29;20076;-84
2021/12/24 08:07:57;;;;;;;11.30;4.60;;;8.10;99.90;;;;;;4840985;29;20057;-84
2021/12/24 08:10:24;;;;;;;10.90;4.55;;;8.00;99.90;;;;;;4789217;29;20058;-84
2021/12/24 08:12:51;;;;;;;12.90;5.00;;;8.10;99.90;;;;;;4815937;29;20408;-83
2021/12/24 08:15:17;;;;;;;12.88;4.95;;;8.10;99.90;;;;;;4824375;29;20045;-84
2021/12/24 08:17:45;;;;;;;16.60;5.22;;;8.10;99.90;;;;;;4826428;29;20050;-82
2021/12/24 08:20:12;;;;;;;10.77;5.18;;;8.00;99.90;;;;;;4786693;29;20044;-82
2021/12/24 08:22:38;;;;;;;15.52;5.47;;;8.00;99.90;;;;;;4824503;29;20046;-83
2021/12/24 08:25:06;;;;;;;15.77;5.93;;;8.10;99.90;;;;;;4836671;29;20077;-84
2021/12/24 08:27:38;;;;;;;15.95;5.22;;;8.00;99.90;;;;;;4826855;29;20044;-83
2021/12/24 08:30:05;;;;;;;12.70;5.53;;;8.10;99.90;;;;;;4846557;29;20042;-82
2021/12/24 08:32:38;;;;;;;10.48;5.00;;;8.10;99.90;;;;;;4830439;29;20045;-83
2021/12/24 08:35:07;;;;;;;19.17;5.90;;;8.00;99.90;;;;;;4807518;29;20053;-83
2021/12/24 08:37:36;;;;;;;14.70;6.13;;;8.00;99.90;;;;;;4836100;29;20045;-83
2021/12/24 08:40:03;;;;;;;15.88;5.10;;;8.00;99.90;;;;;;4861736;29;20048;-82
2021/12/24 08:42:29;;;;;;;15.27;5.20;;;8.00;99.90;;;;;;4845276;29;20391;-82
2021/12/24 08:44:54;;;;;;;16.38;5.82;;;8.10;99.90;;;;;;4834288;29;20050;-84
2021/12/24 08:47:20;;;;;;;14.07;6.07;;;8.00;99.90;;;;;;4828551;29;20045;-82
2021/12/24 08:49:46;;;;;;;14.65;5.25;;;8.00;99.90;;;;;;4815044;29;20053;-82
2021/12/24 08:52:12;;;;;;;16.15;5.45;;;8.00;99.90;;;;;;4813292;29;20045;-82
2021/12/24 08:54:37;;;;;;;17.63;5.90;;;8.10;99.90;;;;;;4830135;29;20041;-84
2021/12/24 08:57:04;;;;;;;13.50;6.13;;;8.00;99.90;;;;;;4823772;29;20460;-81
2021/12/24 08:59:29;;;;;;;;;;;8.00;99.90;;;;;;4830209;29;20052;-81
2021/12/24 09:01:58;;;;;;;19.90;6.18;;;8.00;99.90;;;;;;4829713;29;19928;-81
2021/12/24 09:04:24;;;;;;;18.08;6.20;;;8.10;99.90;;;;;;4845178;29;20145;-81
2021/12/24 09:06:50;;;;;;;16.42;5.90;;;8.00;99.90;;;;;;4842890;29;20513;-82
2021/12/24 09:09:16;;;;;;;14.77;5.22;;;8.10;99.90;;;;;;4861736;29;20116;-81
2021/12/24 09:11:44;;;;;;;15.77;5.20;;;8.00;99.90;;;;;;4840915;29;20129;-81
2021/12/24 09:14:10;;;;;;;15.20;5.18;;;8.00;99.90;;;;;;4842566;29;20125;-82
2021/12/24 09:16:36;;;;;;;;;;;8.00;99.90;;;;;;4845689;29;20372;-82
2021/12/24 09:19:08;;;;;;;12.32;4.57;;;8.00;99.90;;;;;;4830027;29;20629;-82
2021/12/24 09:21:34;;;;;;;10.20;4.43;;;7.90;99.90;;;;;;4824399;29;20689;-81
2021/12/24 09:24:01;;;;;;;12.65;4.57;;;7.90;99.90;;;;;;4844972;29;20098;-82
2021/12/24 09:26:29;;;;;;;9.63;4.35;;;7.90;99.90;;;;;;4847196;29;20475;-81
2021/12/24 09:28:56;;;;;;;11.27;4.38;;;8.00;99.90;;;;;;4827041;29;20041;-82
2021/12/24 09:31:23;;;;;;;8.93;4.00;;;8.00;99.90;;;;;;4837097;29;20511;-82
2021/12/24 09:33:49;;;;;;;9.18;3.83;;;7.90;99.90;;;;;;4839064;29;20056;-83
2021/12/24 09:36:20;;;;;;;10.18;3.40;;;7.90;99.90;;;;;;4844849;29;20077;-83
2021/12/24 09:38:46;;;;;;;7.40;3.35;;;7.80;99.90;;;;;;4847724;29;20483;-83
2021/12/24 09:41:11;;;;;;;7.50;3.15;;;7.90;99.90;;;;;;4848516;29;20050;-82
2021/12/24 09:43:37;;;;;;;3.58;1.83;;;7.90;99.90;;;;;;4840560;29;20041;-81
2021/12/24 09:46:03;;;;;;;2.35;1.50;;;7.40;99.90;;;;;;4839708;29;20700;-81
2021/12/24 09:48:29;;;;;;;2.15;1.42;;;6.90;99.90;;;;;;4838333;29;20418;-82
2021/12/24 09:50:54;;;;;;;1.48;1.20;;;6.80;99.90;;;;;;4806159;29;20128;-83
2021/12/24 09:53:20;;;;;;;2.03;1.58;;;6.60;99.90;;;;;;4839038;29;20041;-84
2021/12/24 09:55:46;;;;;;;2.40;1.80;;;6.60;99.90;;;;;;4816391;29;20056;-83
2021/12/24 09:58:12;;;;;;;2.20;1.90;;;6.40;99.90;;;;;;4839335;29;20504;-82
2021/12/24 10:00:37;;;;;;;2.45;1.77;;;6.30;99.90;;;;;;4859057;29;20476;-85
2021/12/24 10:03:03;;;;;;;2.30;1.85;;;6.30;99.90;;;;;;4843747;29;20064;-82
2021/12/24 10:05:29;;;;;;;1.83;1.52;;;6.20;99.90;;;;;;4813072;29;20128;-83
2021/12/24 10:08:11;;;;;;;2.13;1.80;;;6.30;99.90;;;;;;4822071;29;20057;-84
2021/12/24 10:10:42;;;;;;;2.40;1.60;;;6.20;99.90;;;;;;4841961;29;20519;-84
2021/12/24 10:13:31;;;;;;;2.92;1.90;;;6.20;99.90;;;;;;4843016;29;20038;-82
2021/12/24 10:16:00;;;;;;;2.50;2.10;;;6.20;99.90;;;;;;4820539;29;20127;-83
2021/12/24 10:18:43;;;;;;;2.30;2.10;;;6.10;99.90;;;;;;4827792;29;20121;-82
2021/12/24 10:21:18;;;;;;;2.60;2.25;;;6.20;99.90;;;;;;4857207;29;20053;-82
2021/12/24 10:23:53;;;;;;;3.00;2.17;;;6.10;99.90;;;;;;4859642;29;20034;-82
2021/12/24 10:26:25;;;;;;;2.88;2.20;;;6.10;99.90;;;;;;4842555;29;20033;-82
2021/12/24 10:29:01;;;;;;;2.90;2.42;;;6.20;99.90;;;;;;4838129;29;20045;-82
2021/12/24 10:31:31;;;;;;;2.63;2.30;;;6.10;99.90;;;;;;4829396;29;20128;-83
2021/12/24 10:34:08;;;;;;;2.95;2.22;;;6.10;99.90;;;;;;4837318;29;20041;-82
2021/12/24 10:36:55;;;;;;;3.08;2.20;;;6.10;99.90;;;;;;4821526;29;20523;-83
2021/12/24 10:39:28;;;;;;;2.22;1.88;;;6.10;99.90;;;;;;4861945;29;20045;-82
2021/12/24 10:41:56;;;;;;;2.40;1.90;;;6.10;99.90;;;;;;4837334;29;20068;-83
2021/12/24 10:44:35;;;;;;;2.30;1.90;;;6.10;99.90;;;;;;4830541;29;20487;-82
2021/12/24 10:47:09;;;;;;;3.78;2.75;;;6.00;99.90;;;;;;4837339;29;20079;-83
2021/12/24 10:55:05;;;;;;;2.53;2.00;;;5.90;99.90;;;;;;4844182;29;20104;-83
2021/12/24 10:57:33;;;;;;;3.20;2.47;;;6.00;99.90;;;;;;4827724;29;20049;-83
2021/12/24 11:00:05;;;;;;;2.53;2.20;;;5.90;99.90;;;;;;4858486;29;20043;-83
2021/12/24 11:02:36;;;;;;;2.80;2.40;;;5.90;99.90;;;;;;4847802;29;20049;-83
2021/12/24 11:05:04;;;;;;;3.63;2.30;;;5.80;99.90;;;;;;4832159;29;20074;-83
2021/12/24 11:07:32;;;;;;;2.53;1.85;;;5.80;99.90;;;;;;4843201;29;20041;-84
2021/12/24 11:10:05;;;;;;;4.78;2.30;;;5.80;99.90;;;;;;4828053;29;20419;-85
2021/12/24 11:12:44;;;;;;;3.22;1.98;;;5.70;99.90;;;;;;4859233;29;20053;-85
2021/12/24 11:15:29;;;;;;;4.22;2.10;;;5.70;99.90;;;;;;4827883;29;20050;-85
2021/12/24 11:18:00;;;;;;;4.55;1.95;;;5.70;99.90;;;;;;4830931;29;20062;-85
2021/12/24 11:20:28;;;;;;;2.53;1.80;;;5.60;99.90;;;;;;4855773;29;20056;-83
2021/12/24 11:22:59;;;;;;;3.22;1.92;;;5.60;99.90;;;;;;4836684;29;20112;-83
2021/12/24 11:25:38;;;;;;;2.85;1.83;;;5.70;99.90;;;;;;4840136;29;20507;-84
2021/12/24 11:28:06;;;;;;;2.10;1.52;;;5.60;99.90;;;;;;4826854;29;20041;-85
2021/12/24 11:30:35;;;;;;;1.77;1.40;;;5.60;99.90;;;;;;4821334;29;20049;-85
2021/12/24 11:33:01;;;;;;;2.15;1.40;;;5.60;99.90;;;;;;4842760;29;20407;-84
2021/12/24 11:35:29;;;;;;;1.58;1.23;;;5.60;99.90;;;;;;4843106;29;20057;-82
2021/12/24 11:37:55;;;;;;;1.98;1.50;;;5.60;99.90;;;;;;4828239;29;20060;-84
2021/12/24 11:40:24;;;;;;;2.20;1.70;;;5.60;99.90;;;;;;4824871;29;20480;-85
2021/12/24 11:42:59;;;;;;;1.80;1.50;;;5.50;99.90;;;;;;4825703;29;20251;-84
2021/12/24 11:45:28;;;;;;;1.63;1.10;;;5.60;99.90;;;;;;4856356;29;20044;-85
2021/12/24 11:47:54;;;;;;;2.75;1.60;;;5.50;99.90;;;;;;4828333;29;20859;-85
2021/12/24 11:50:21;;;;;;;2.30;1.48;;;5.60;99.90;;;;;;4823045;29;21298;-84
2021/12/24 11:52:48;;;;;;;2.10;1.55;;;5.50;99.90;;;;;;4836673;29;20395;-84
2021/12/24 11:55:15;;;;;;;1.60;1.30;;;5.40;99.90;;;;;;4814087;29;20042;-84
2021/12/24 11:57:50;;;;;;;2.75;1.40;;;5.50;99.90;;;;;;4836777;29;20132;-85
2021/12/24 12:00:21;;;;;;;2.17;1.55;;;5.40;99.90;;;;;;4810405;29;20053;-85
2021/12/24 12:02:47;;;;;;;2.08;1.60;;;5.30;99.90;;;;;;4826204;29;20042;-84
2021/12/24 12:05:16;;;;;;;2.72;1.90;;;5.30;99.90;;;;;;4828154;29;20435;-84
2021/12/24 12:07:42;;;;;;;1.98;1.60;;;5.30;99.90;;;;;;4843645;29;20077;-82
2021/12/24 12:10:08;;;;;;;1.98;1.50;;;5.30;99.90;;;;;;4871930;29;20157;-82
2021/12/24 12:12:36;;;;;;;2.10;1.45;;;5.30;99.90;;;;;;4819533;29;20042;-82
2021/12/24 12:15:24;;;;;;;1.77;1.30;;;5.30;99.90;;;;;;4822940;29;20093;-82
2021/12/24 12:17:58;;;;;;;1.70;1.30;;;5.30;99.90;;;;;;4843374;29;20057;-83
2021/12/24 12:20:45;;;;;;;1.77;1.50;;;5.20;99.90;;;;;;4842913;29;20045;-85
2021/12/24 12:23:47;;;;;;;1.90;1.60;;;5.40;99.90;;;;;;4834048;29;20384;-85
2021/12/24 12:26:43;;;;;;;2.30;1.60;;;5.40;99.90;;;;;;4809440;29;20046;-84
2021/12/24 12:29:18;;;;;;;1.73;1.50;;;5.40;99.90;;;;;;4815991;29;20053;-85
2021/12/24 12:31:46;;;;;;;1.90;1.48;;;5.40;99.90;;;;;;4841368;29;20041;-85
2021/12/24 12:34:41;;;;;;;2.20;1.67;;;5.50;99.90;;;;;;4831390;29;20061;-82
2021/12/24 12:37:22;;;;;;;2.45;1.98;;;5.50;99.90;;;;;;4821809;29;20084;-83
2021/12/24 12:39:51;;;;;;;2.88;2.40;;;5.50;99.90;;;;;;4845176;29;20452;-83
2021/12/24 12:42:18;;;;;;;7.90;5.72;;;5.60;99.90;;;;;;4843856;29;20042;-83
2021/12/24 12:44:51;;;;;;;4.70;3.95;;;5.50;99.90;;;;;;4838526;29;20045;-82
2021/12/24 12:47:21;;;;;;;3.42;2.85;;;5.60;99.90;;;;;;4829282;29;20072;-83
2021/12/24 12:49:48;;;;;;;4.35;3.30;;;5.60;99.90;;;;;;4832028;29;20049;-83
2021/12/24 12:52:41;;;;;;;4.93;4.07;;;5.50;99.90;;;;;;4827657;29;20132;-83
2021/12/24 12:55:31;;;;;;;3.97;3.00;;;5.50;99.90;;;;;;4836726;29;20145;-83
2021/12/24 12:58:24;;;;;;;3.45;2.67;;;5.60;99.90;;;;;;4826958;29;20528;-83
2021/12/24 13:01:15;;;;;;;2.85;2.20;;;5.60;99.90;;;;;;4844502;29;20113;-83
2021/12/24 13:04:00;;;;;;;2.28;1.90;;;5.60;99.90;;;;;;4837071;29;20063;-81
2021/12/24 13:06:34;;;;;;;2.40;1.85;;;5.60;99.90;;;;;;4845011;29;20105;-81
2021/12/24 13:09:03;;;;;;;2.50;2.10;;;5.80;99.90;;;;;;4831958;29;20044;-82
2021/12/24 13:11:37;;;;;;;3.08;2.50;;;5.70;99.90;;;;;;4852181;29;20085;-82
2021/12/24 13:14:04;;;;;;;11.15;6.18;;;5.80;99.90;;;;;;4847141;29;20041;-82
2021/12/24 13:16:45;;;;;;;6.82;4.35;;;5.70;99.90;;;;;;4829410;29;20045;-83
2021/12/24 13:24:53;;;;;;;5.70;3.60;;;5.70;99.90;;;;;;4848839;29;20166;-83
2021/12/24 13:27:23;;;;;;;6.78;5.35;;;5.80;99.90;;;;;;4840688;29;20128;-85
2021/12/24 13:30:02;;;;;;;9.05;6.00;;;5.90;99.90;;;;;;4845420;29;20052;-84
2021/12/24 13:32:28;;;;;;;8.10;5.28;;;5.90;99.90;;;;;;4852633;29;20072;-84
2021/12/24 13:34:57;;;;;;;9.45;6.45;;;5.80;99.90;;;;;;4835714;29;20433;-84
2021/12/24 13:37:31;;;;;;;13.95;9.00;;;5.90;99.90;;;;;;4830229;29;20496;-84
2021/12/24 13:39:57;;;;;;;12.70;8.15;;;5.90;99.90;;;;;;4840528;29;20418;-84
2021/12/24 13:42:22;;;;;;;12.30;7.55;;;5.90;99.90;;;;;;4824727;29;20034;-83
2021/12/24 13:44:49;;;;;;;8.05;5.85;;;5.80;99.90;;;;;;4815462;29;20041;-84
2021/12/24 13:47:33;;;;;;;7.50;5.32;;;5.90;99.90;;;;;;4860548;29;20060;-83
2021/12/24 13:55:23;;;;;;;6.93;4.90;;;6.00;99.90;;;;;;4844049;29;20805;-84
2021/12/24 13:58:13;;;;;;;6.20;4.32;;;6.00;99.90;;;;;;4821521;29;20452;-84
2021/12/24 14:00:49;;;;;;;4.80;3.80;;;6.00;99.90;;;;;;4844361;29;20046;-84
2021/12/24 14:03:15;;;;;;;11.43;7.13;;;6.00;99.90;;;;;;4829932;29;20052;-84
2021/12/24 14:05:46;;;;;;;7.70;5.35;;;6.00;99.90;;;;;;4829758;29;20041;-84
2021/12/24 14:08:14;;;;;;;5.95;4.03;;;6.00;99.90;;;;;;4829645;29;20049;-84
2021/12/24 14:10:42;;;;;;;5.35;3.90;;;6.00;99.90;;;;;;4840029;29;20140;-84
2021/12/24 14:13:22;;;;;;;10.20;4.50;;;5.90;99.90;;;;;;4810484;29;20054;-84
2021/12/24 14:24:10;;;;;;;7.95;4.18;;;5.90;99.90;;;;;;4844306;29;20826;-83
2021/12/24 14:26:49;;;;;;;21.13;9.43;;;5.90;99.90;;;;;;4828864;29;20092;-83
2021/12/24 14:29:26;;;;;;;8.02;3.95;;;5.90;99.90;;;;;;4844113;29;20088;-83
2021/12/24 14:32:06;;;;;;;2.83;1.80;;;6.00;99.90;;;;;;4847266;29;20116;-82
2021/12/24 14:34:52;;;;;;;3.05;1.50;;;5.80;99.90;;;;;;4836449;29;20408;-81
2021/12/24 14:37:35;;;;;;;2.25;1.20;;;5.80;99.90;;;;;;4835990;29;20048;-81
2021/12/24 14:40:07;;;;;;;1.75;1.13;;;5.70;99.90;;;;;;4860131;29;20511;-82
2021/12/24 14:42:35;;;;;;;1.38;0.73;;;5.80;99.90;;;;;;4843633;29;20060;-81
2021/12/24 14:45:12;;;;;;;1.77;0.70;;;5.70;99.90;;;;;;4844305;29;20057;-82
2021/12/24 14:47:39;;;;;;;0.60;0.50;;;5.60;99.90;;;;;;4867298;29;20057;-82
2021/12/24 14:50:08;;;;;;;1.77;0.38;;;5.60;99.90;;;;;;4828550;29;20053;-81
2021/12/24 14:52:34;;;;;;;3.75;0.60;;;5.60;99.90;;;;;;4848879;29;20157;-82
2021/12/24 14:55:22;;;;;;;2.20;0.60;;;5.50;99.90;;;;;;4828322;29;20451;-81
2021/12/24 14:57:52;;;;;;;2.58;0.50;;;5.50;99.90;;;;;;4839683;29;20053;-82
2021/12/24 15:00:40;;;;;;;1.10;0.30;;;5.40;99.90;;;;;;4843526;29;20056;-81
2021/12/24 15:03:14;;;;;;;2.25;0.50;;;5.40;99.90;;;;;;4855254;29;20132;-81
2021/12/24 15:05:46;;;;;;;0.88;0.20;;;5.30;99.90;;;;;;4843443;29;20045;-80